Flight Briefing for CPX442

Departure Arrival
Philadelphia International Airport (KPHL)
Click to view FAA NOTAMS
Cincinnati/Northern Kentucky International Airport (KCVG)
Click to view FAA NOTAMS
Departure Time Arrival Time
N/A N/A
Aircraft Distance
B757-200SF 440nm
Departure METAR Arrival METAR
KPHL 230554Z 21006KT 10SM FEW075 SCT110 17/08 A3023 RMK AO2 SLP235 T01720083 10217 20167 57009 KCVG 230552Z 19006KT 10SM CLR 21/19 A3006 RMK AO2 SLP169 60000 T02060189 10233 20200 55003
Suggested Route
MXE PENSY J110 FLIRT J6 MRB J6 COLNS GAVNN4


View recent IFR Routes data
Notes



Charts and Procedures

Charts for KPHL
No chart available
Charts for KCVG
No chart available

Windy.com Weather Map